Benedict, Nebraska
Current Conditions -  °F | °C
As of 1:15 AM on Friday 31 Oct 2014 (Local Time) from KJYR Reporting Station
Overcast Overcast  
Wind Chill: 27°   Ceiling: 2200
Heat Index: 37°   Visibility: 10mi
Dew Point: 32°   Wind: 22mph
Humidity: 81%   Direction: 10°N
Pressure: 30.42"   Gusts: 33mph
Location:  41.01°N, 97.61°W
Report Text: KJYR 310615Z AUTO 01019G29KT 10SM OVC022 03/00 A3042 RMK AO2
Loading
Personal Weather Stations






























Interactive Weather Map
Tropical Storm Tracking
New forecast layout! Learn more

10-Day Weather Forecast

Advertisements
Track Severe Weather on mobile